• Join FlightAware (Why Join?)
  • Login
  • US Flag 
Rudolph Flight #1: Arrived! 
02:49AM EST


 

Airport Tracker/Info


-or-


 

Live Flight TrackerFlight Track Log ✈ N4507T ✈ 07-Jul-2013 ✈ KALO - KIWD

Flight Track Log - Related Links

Times and Time Zones

All times are in EDT time to prevent confusion due to time zone crossing. See the N4507T flight status page for this flight to view local times or setup timezone preferences in your user account.

Time Position Orientation Groundspeed Altitude Reporting Facility
EDT Latitude Longitude Course Direction KTS MPH feet Rate Location/Type
12:49PM 42.6250 -92.3411 23° Northeast 104 120 3,100  Level Chicago Center
12:50PM 42.6547 -92.3275 19° North 108 124 3,500 360 Climbing Chicago Center
12:51PM 42.8293 -92.2438 20° North  Level FlightAware Approximate
12:51PM 42.6847 -92.3119 21° North 112 129 3,900  Level Chicago Center
12:52PM 42.8608 -92.2281 20° North  Level FlightAware Approximate
12:52PM 42.7206 -92.2925 22° Northeast 114 131 4,500  Level Chicago Center
12:53PM 42.8923 -92.2123 20° North  Level FlightAware Approximate
12:53PM 42.7517 -92.2761 21° North 117 135 4,700  Level Chicago Center
12:54PM 42.7825 -92.2597 21° North 119 137 5,000 360 Climbing Chicago Center
12:55PM 42.8133 -92.2433 21° North 119 137 5,500 360 Climbing Chicago Center
12:56PM 42.8431 -92.2294 19° North 117 135 5,800 300 Climbing Chicago Center
12:57PM 42.8778 -92.2108 21° North 115 132 6,200 300 Climbing Chicago Center
12:58PM 42.9075 -92.1947 22° Northeast 114 131 6,500 240 Climbing Chicago Center
12:59PM 42.9372 -92.1789 21° North 115 132 6,800 240 Climbing Chicago Center
01:00PM 42.9678 -92.1631 21° North 116 133 7,000 60 Climbing Chicago Center
01:01PM 43.0022 -92.1453 21° North 122 140 7,000  Level Chicago Center
01:02PM 43.0467 -92.1231 20° North 134 154 7,000  Level Chicago Center
01:03PM 43.0697 -92.1114 20° North 136 157 7,000 60 Level Minneapolis Center
01:04PM 43.1056 -92.0919 22° Northeast 138 159 7,100  Climbing Minneapolis Center
01:05PM 43.1414 -92.0719 22° Northeast 139 160 7,000 -60 Descending Minneapolis Center
01:06PM 43.1772 -92.0525 22° Northeast 140 161 7,000  Level Minneapolis Center
01:07PM 43.2061 -92.0364 22° Northeast 140 161 7,000  Level Minneapolis Center
01:08PM 43.2581 -92.0103 20° North 143 165 7,000  Level Minneapolis Center
01:09PM 43.2986 -91.9875 22° Northeast 148 170 7,000  Level Minneapolis Center
01:10PM 43.3350 -91.9678 22° Northeast 142 163 7,000  Level Minneapolis Center
01:11PM 43.3750 -91.9458 22° Northeast 145 167 7,000  Level Minneapolis Center
01:12PM 43.4125 -91.9261 21° North 144 166 7,000  Level Minneapolis Center
01:13PM 43.4514 -91.9039 23° Northeast 143 165 7,000  Level Minneapolis Center
01:14PM 43.4883 -91.8844 21° North 144 166 7,000  Level Minneapolis Center
01:15PM 43.5281 -91.8625 22° Northeast 144 166 7,000  Level Minneapolis Center
01:16PM 43.5681 -91.8417 21° North 143 165 7,000  Level Minneapolis Center
01:17PM 43.6047 -91.8217 22° Northeast 145 167 7,000  Level Minneapolis Center
01:18PM 43.6442 -91.7994 22° Northeast 144 166 7,000  Level Minneapolis Center
01:19PM 43.6811 -91.7803 21° North 142 163 7,000  Level Minneapolis Center
01:20PM 43.7167 -91.7611 21° North 143 165 7,000  Level Minneapolis Center
01:21PM 43.7608 -91.7358 22° Northeast 146 168 7,000  Level Minneapolis Center
01:22PM 43.7978 -91.7131 24° Northeast 145 167 7,000  Level Minneapolis Center
01:23PM 43.8378 -91.6936 19° North 145 167 7,000  Level Minneapolis Center
01:25PM 43.8769 -91.6714 22° Northeast 150 173 7,000  Level Minneapolis Center
01:26PM 43.9164 -91.6489 22° Northeast 147 169 7,000  Level Minneapolis Center
01:27PM 43.9550 -91.6272 22° Northeast 146 168 7,000  Level Minneapolis Center
01:28PM 43.9911 -91.6078 21° North 144 166 7,000  Level Minneapolis Center
01:29PM 44.0308 -91.5856 22° Northeast 146 168 7,000  Level Minneapolis Center
01:30PM 44.0703 -91.5639 22° Northeast 147 169 7,000  Level Minneapolis Center
01:31PM 44.1078 -91.5425 22° Northeast 140 161 7,000  Level Minneapolis Center
01:32PM 44.1475 -91.5217 21° North 146 168 7,000  Level Minneapolis Center
01:33PM 44.1858 -91.4986 23° Northeast 145 167 7,000  Level Minneapolis Center
01:34PM 44.2247 -91.4767 22° Northeast 144 166 7,000  Level Minneapolis Center
01:35PM 44.2597 -91.4572 22° Northeast 142 163 7,000  Level Minneapolis Center
01:36PM 44.2967 -91.4356 23° Northeast 139 160 7,000  Level Minneapolis Center
01:37PM 44.3344 -91.4156 21° North 139 160 7,000  Level Minneapolis Center
01:38PM 44.3639 -91.3983 23° Northeast 142 163 7,000  Level Minneapolis Center
01:39PM 44.4111 -91.3719 22° Northeast 142 163 7,000  Level Minneapolis Center
01:40PM 44.4408 -91.3558 21° North 143 165 7,000  Level Minneapolis Center
01:41PM 44.4861 -91.3300 22° Northeast 138 159 7,100  Climbing Minneapolis Center
01:42PM 44.5208 -91.3103 22° Northeast 139 160 7,100  Level Minneapolis Center
01:43PM 44.5572 -91.2903 21° North 136 157 7,100  Level Minneapolis Center
01:44PM 44.5936 -91.2697 22° Northeast 136 157 7,100  Level Minneapolis Center
01:45PM 44.6317 -91.2486 22° Northeast 140 161 7,100  Level Minneapolis Center
01:46PM 44.6694 -91.2272 22° Northeast 138 159 7,100  Level Minneapolis Center
01:47PM 44.7067 -91.2061 22° Northeast 139 160 7,100  Level Minneapolis Center
01:49PM 44.7492 -91.1817 22° Northeast 138 159 7,100  Level Minneapolis Center
01:50PM 44.7953 -91.1558 22° Northeast 138 159 7,100  Level Minneapolis Center
01:51PM 44.8242 -91.1389 23° Northeast 140 161 7,100  Level Minneapolis Center
01:52PM 44.8667 -91.1150 22° Northeast 137 158 7,100  Level Minneapolis Center
01:53PM 44.9033 -91.0942 22° Northeast 137 158 7,100  Level Minneapolis Center
01:54PM 44.9400 -91.0728 22° Northeast 136 157 7,100  Level Minneapolis Center
01:55PM 44.9767 -91.0517 22° Northeast 135 155 7,100  Level Minneapolis Center
01:56PM 45.0136 -91.0303 22° Northeast 136 157 7,100  Level Minneapolis Center
01:57PM 45.0506 -91.0103 21° North 136 157 7,100  Level Minneapolis Center
01:58PM 45.0833 -90.9900 24° Northeast 133 153 7,100  Level Minneapolis Center
01:59PM 45.1208 -90.9683 22° Northeast 135 155 7,100  Level Minneapolis Center
02:00PM 45.1494 -90.9492 25° Northeast 131 151 7,100  Level Minneapolis Center
02:01PM 45.1842 -90.9306 21° North 132 152 7,100  Level Minneapolis Center
02:02PM 45.2231 -90.9058 24° Northeast 129 148 7,100  Level Minneapolis Center
02:03PM 45.2572 -90.8872 21° North 130 150 7,100  Level Minneapolis Center
02:04PM 45.2911 -90.8683 21° North 130 150 7,100  Level Minneapolis Center
02:05PM 45.3256 -90.8489 22° Northeast 132 152 7,100  Level Minneapolis Center
02:06PM 45.3603 -90.8289 22° Northeast 134 154 7,100  Level Minneapolis Center
02:07PM 45.3994 -90.8061 22° Northeast 129 148 7,100  Level Minneapolis Center
02:08PM 45.4322 -90.7864 23° Northeast 128 147 7,100  Level Minneapolis Center
02:09PM 45.4650 -90.7667 23° Northeast 128 147 7,100  Level Minneapolis Center
02:10PM 45.4978 -90.7478 22° Northeast 127 146 7,100  Level Minneapolis Center
02:11PM 45.5314 -90.7286 22° Northeast 128 147 7,100  Level Minneapolis Center
02:13PM 45.5633 -90.7097 22° Northeast 127 146 7,100  Level Minneapolis Center
02:14PM 45.6017 -90.6878 22° Northeast 125 144 7,100  Level Minneapolis Center
02:15PM 45.6342 -90.6692 22° Northeast 125 144 7,100  Level Minneapolis Center
02:16PM 45.6653 -90.6497 24° Northeast 124 143 7,100  Level Minneapolis Center
02:17PM 45.6969 -90.6311 22° Northeast 123 142 7,100  Level Minneapolis Center
02:18PM 45.7281 -90.6114 24° Northeast 122 140 7,100  Level Minneapolis Center
02:19PM 45.7614 -90.5939 20° North 124 143 7,100  Level Minneapolis Center
02:20PM 45.7989 -90.5725 22° Northeast 124 143 7,100  Level Minneapolis Center
02:21PM 45.8300 -90.5514 25° Northeast 123 142 7,100  Level Minneapolis Center
02:22PM 45.8675 -90.5319 20° North 121 139 7,100  Level Minneapolis Center
02:23PM 45.8981 -90.5125 24° Northeast 121 139 7,100 -60 Level Minneapolis Center
02:24PM 45.9306 -90.4939 22° Northeast 122 140 7,000 -180 Descending Minneapolis Center
02:25PM 45.9603 -90.4742 25° Northeast 121 139 6,800 -360 Descending Minneapolis Center
02:26PM 46.0011 -90.4506 22° Northeast 124 143 6,300 -480 Descending Minneapolis Center
02:27PM 46.0372 -90.4300 22° Northeast 132 152 5,900 -360 Descending Minneapolis Center
02:28PM 46.0689 -90.4097 24° Northeast 130 150 5,600 -360 Descending Minneapolis Center
02:29PM 46.1056 -90.3889 22° Northeast 133 153 5,200 -360 Descending Minneapolis Center
02:31PM 46.1381 -90.3681 24° Northeast 133 153 4,800 -360 Descending Minneapolis Center
02:32PM 46.1778 -90.3450 22° Northeast 130 150 4,400 -300 Descending Minneapolis Center
02:33PM 46.2117 -90.3253 22° Northeast 130 150 4,200 -300 Descending Minneapolis Center
02:34PM 46.2481 -90.3031 23° Northeast 125 144 3,800 -300 Descending Minneapolis Center
02:35PM 46.2808 -90.2833 23° Northeast 126 145 3,600 -180 Descending Minneapolis Center
02:36PM 46.3114 -90.2647 23° Northeast 123 142 3,500 -60 Descending Minneapolis Center
02:37PM 46.3422 -90.2453 24° Northeast 123 142 3,500  Level Minneapolis Center